createdAt,value
2023-04-16T00:02:13.860Z,6.93
2023-04-16T00:04:41.492Z,6.63
2023-04-16T00:07:08.883Z,9.75
2023-04-16T00:09:36.124Z,12.77
2023-04-16T00:12:03.767Z,11.10
2023-04-16T00:14:31.312Z,9.45
2023-04-16T00:16:58.539Z,9.02
2023-04-16T00:19:25.860Z,9.60
2023-04-16T00:21:53.085Z,11.48
2023-04-16T00:24:20.337Z,10.40
2023-04-16T00:26:47.578Z,10.10
2023-04-16T00:29:15.594Z,10.23
2023-04-16T00:31:42.883Z,10.52
2023-04-16T00:34:10.274Z,12.85
2023-04-16T00:36:37.566Z,12.88
2023-04-16T00:39:05.669Z,13.73
2023-04-16T00:41:33.043Z,8.60
2023-04-16T00:44:00.296Z,9.15
2023-04-16T00:46:27.673Z,8.95
2023-04-16T00:48:55.843Z,7.60
2023-04-16T00:51:23.201Z,8.43
2023-04-16T00:53:50.660Z,12.52
2023-04-16T00:56:18.535Z,7.43
2023-04-16T00:58:45.777Z,10.63
2023-04-16T01:01:14.442Z,9.98
2023-04-16T01:03:44.770Z,11.40
2023-04-16T01:06:12.492Z,13.02
2023-04-16T01:08:40.136Z,11.07
2023-04-16T01:11:07.528Z,10.20
2023-04-16T01:13:39.325Z,14.77
2023-04-16T01:16:08.047Z,11.20
2023-04-16T01:18:36.187Z,11.48
2023-04-16T01:21:04.067Z,11.32
2023-04-16T01:23:31.602Z,11.38
2023-04-16T01:25:58.931Z,12.95
2023-04-16T01:28:26.295Z,12.40
2023-04-16T01:30:53.485Z,12.77
2023-04-16T01:33:40.142Z,9.63
2023-04-16T01:36:07.840Z,11.80
2023-04-16T01:38:35.033Z,11.00
2023-04-16T01:41:02.259Z,17.80
2023-04-16T01:43:29.665Z,10.05
2023-04-16T01:46:08.767Z,10.18
2023-04-16T01:51:04.939Z,10.23
2023-04-16T01:53:32.248Z,11.85
2023-04-16T01:55:59.582Z,14.20
2023-04-16T01:58:29.289Z,14.68
2023-04-16T02:00:56.926Z,11.10
2023-04-16T02:03:24.967Z,15.52
2023-04-16T02:05:53.438Z,15.98
2023-04-16T02:08:21.020Z,15.63
2023-04-16T02:10:48.569Z,15.77
2023-04-16T02:13:16.964Z,12.97
2023-04-16T02:15:50.036Z,19.30
2023-04-16T02:18:25.355Z,15.48
2023-04-16T02:20:52.863Z,15.85
2023-04-16T02:23:20.302Z,19.15
2023-04-16T02:25:48.345Z,15.65
2023-04-16T02:28:17.115Z,20.57
2023-04-16T02:30:46.401Z,14.55
2023-04-16T02:33:16.132Z,17.40
2023-04-16T02:35:54.474Z,12.67
2023-04-16T02:38:21.793Z,15.88
2023-04-16T02:40:49.028Z,18.92
2023-04-16T02:43:17.424Z,20.67
2023-04-16T02:45:45.145Z,15.63
2023-04-16T02:48:12.512Z,17.70
2023-04-16T02:50:39.825Z,15.85
2023-04-16T02:53:07.829Z,15.23
2023-04-16T02:55:35.103Z,23.13
2023-04-16T02:58:02.356Z,17.20
2023-04-16T03:00:29.782Z,18.48
2023-04-16T03:02:57.294Z,13.50
2023-04-16T03:05:25.093Z,13.10
2023-04-16T03:07:56.574Z,15.48
2023-04-16T03:10:24.192Z,13.88
2023-04-16T03:12:51.745Z,12.32
2023-04-16T03:15:19.094Z,17.98
2023-04-16T03:17:46.375Z,15.13
2023-04-16T03:20:14.475Z,16.55
2023-04-16T03:22:42.071Z,15.17
2023-04-16T03:25:09.633Z,15.18
2023-04-16T03:27:37.086Z,17.05
2023-04-16T03:30:05.076Z,13.45
2023-04-16T03:32:34.988Z,15.43
2023-04-16T03:37:31.907Z,18.73
2023-04-16T03:39:59.262Z,18.60
2023-04-16T03:42:27.135Z,12.63
2023-04-16T03:44:54.444Z,25.00
2023-04-16T03:47:23.506Z,15.85
2023-04-16T03:49:54.676Z,17.58
2023-04-16T03:52:21.930Z,12.77
2023-04-16T03:54:49.291Z,13.23
2023-04-16T03:57:35.050Z,12.25
2023-04-16T04:00:09.834Z,16.65
2023-04-16T04:02:54.471Z,16.45
2023-04-16T04:05:21.826Z,18.98
2023-04-16T04:07:49.964Z,20.58
2023-04-16T04:10:17.258Z,19.27
2023-04-16T04:12:44.676Z,20.30
2023-04-16T04:15:12.884Z,20.40
2023-04-16T04:17:40.251Z,20.08
2023-04-16T04:20:07.817Z,20.02
2023-04-16T04:22:35.355Z,24.55
2023-04-16T04:25:02.674Z,18.70
2023-04-16T04:27:32.633Z,23.10
2023-04-16T04:29:59.960Z,19.73
2023-04-16T04:32:28.164Z,24.80
2023-04-16T04:34:55.549Z,19.45
2023-04-16T04:37:22.812Z,27.98
2023-04-16T04:39:50.289Z,27.00
2023-04-16T04:42:18.622Z,28.05
2023-04-16T04:44:46.608Z,25.20
2023-04-16T04:47:14.437Z,31.35
2023-04-16T04:49:41.859Z,26.48
2023-04-16T04:52:09.221Z,20.85
2023-04-16T04:54:36.553Z,23.38
2023-04-16T04:57:03.802Z,23.08
2023-04-16T04:59:31.275Z,18.95
2023-04-16T05:01:58.634Z,21.98
2023-04-16T05:04:26.236Z,23.00
2023-04-16T05:06:53.466Z,22.10
2023-04-16T05:09:20.662Z,19.77
2023-04-16T05:11:47.858Z,28.02
2023-04-16T05:14:15.105Z,25.50
2023-04-16T05:16:42.324Z,24.90
2023-04-16T05:19:09.800Z,20.10
2023-04-16T05:21:37.251Z,19.30
2023-04-16T05:24:04.469Z,30.08
2023-04-16T05:26:31.698Z,25.95
2023-04-16T05:28:58.939Z,26.90
2023-04-16T05:31:26.693Z,27.98
2023-04-16T05:33:53.902Z,29.48
2023-04-16T05:36:21.387Z,20.98
2023-04-16T05:38:48.628Z,27.45
2023-04-16T05:41:15.922Z,22.92
2023-04-16T05:43:43.195Z,30.25
2023-04-16T05:46:10.924Z,25.83
2023-04-16T05:48:38.183Z,26.65
2023-04-16T05:51:05.695Z,27.70
2023-04-16T05:53:32.939Z,23.95
2023-04-16T05:56:00.149Z,22.15
2023-04-16T05:58:27.369Z,24.42
2023-04-16T06:00:54.597Z,30.48
2023-04-16T06:03:21.910Z,22.17
2023-04-16T06:05:49.277Z,22.17
2023-04-16T06:08:16.624Z,24.30
2023-04-16T06:10:43.820Z,21.02
2023-04-16T06:13:11.161Z,24.55
2023-04-16T06:15:38.366Z,23.77
2023-04-16T06:18:06.154Z,23.48
2023-04-16T06:20:33.414Z,26.25
2023-04-16T06:23:00.817Z,25.95
2023-04-16T06:25:28.064Z,28.13
2023-04-16T06:27:55.324Z,25.50
2023-04-16T06:30:22.689Z,27.05
2023-04-16T06:32:50.211Z,25.48
2023-04-16T06:35:20.105Z,28.52
2023-04-16T06:37:47.671Z,23.15
2023-04-16T06:40:14.937Z,28.20
2023-04-16T06:42:45.304Z,28.17
2023-04-16T06:45:13.093Z,25.63
2023-04-16T06:47:40.589Z,24.67
2023-04-16T06:50:08.154Z,28.55
2023-04-16T06:52:35.564Z,27.63
2023-04-16T06:55:03.058Z,26.75
2023-04-16T06:57:30.481Z,27.42
2023-04-16T06:59:57.733Z,27.63
2023-04-16T07:02:25.086Z,24.52
2023-04-16T07:04:52.460Z,26.05
2023-04-16T07:07:19.729Z,26.02
2023-04-16T07:09:47.008Z,28.85
2023-04-16T07:12:14.310Z,28.27
2023-04-16T07:14:42.019Z,25.30
2023-04-16T07:17:09.257Z,31.38
2023-04-16T07:19:37.061Z,23.35
2023-04-16T07:22:04.741Z,24.25
2023-04-16T07:24:32.616Z,26.98
2023-04-16T07:26:59.999Z,25.40
2023-04-16T07:29:27.289Z,27.55
2023-04-16T07:31:54.530Z,25.80
2023-04-16T07:34:21.741Z,21.60
2023-04-16T07:36:49.032Z,27.88
2023-04-16T07:39:16.274Z,23.52
2023-04-16T07:41:44.092Z,26.15
2023-04-16T07:44:11.409Z,27.10
2023-04-16T07:46:46.860Z,27.45
2023-04-16T07:49:14.809Z,29.02
2023-04-16T07:51:42.083Z,29.08
2023-04-16T07:54:09.326Z,25.92
2023-04-16T07:56:36.638Z,25.35
2023-04-16T07:59:18.482Z,37.88
2023-04-16T08:01:49.837Z,24.45
2023-04-16T08:04:23.014Z,30.77
2023-04-16T08:06:51.501Z,28.30
2023-04-16T08:09:19.795Z,22.63
2023-04-16T08:11:49.184Z,29.92
2023-04-16T08:14:19.610Z,25.85
2023-04-16T08:16:47.176Z,26.27
2023-04-16T08:19:14.422Z,25.42
2023-04-16T08:21:41.715Z,24.00
2023-04-16T08:24:09.048Z,24.60
2023-04-16T08:26:36.322Z,21.30
2023-04-16T08:29:03.603Z,22.52
2023-04-16T08:31:31.224Z,23.27
2023-04-16T08:33:58.501Z,24.02
2023-04-16T08:36:25.698Z,22.58
2023-04-16T08:38:52.893Z,20.50
2023-04-16T08:41:22.919Z,27.23
2023-04-16T08:43:51.912Z,26.50
2023-04-16T08:46:21.546Z,23.17
2023-04-16T08:48:50.120Z,23.52
2023-04-16T08:51:18.058Z,26.10
2023-04-16T08:53:54.977Z,20.30
2023-04-16T08:56:23.775Z,25.65
2023-04-16T08:58:51.927Z,25.73
2023-04-16T09:01:19.637Z,24.73
2023-04-16T09:03:50.141Z,27.50
2023-04-16T09:06:18.382Z,29.38
2023-04-16T09:08:49.110Z,26.30
2023-04-16T09:11:18.753Z,22.45
2023-04-16T09:13:47.015Z,26.25
2023-04-16T09:16:15.299Z,27.83
2023-04-16T09:18:42.622Z,26.58
2023-04-16T09:21:13.354Z,28.25
2023-04-16T09:23:41.168Z,28.50
2023-04-16T09:26:08.519Z,24.55
2023-04-16T09:28:55.988Z,26.73
2023-04-16T09:31:23.235Z,28.73
2023-04-16T09:34:04.067Z,25.98
2023-04-16T09:36:32.654Z,21.33
2023-04-16T09:39:00.387Z,20.83
2023-04-16T09:41:28.785Z,24.80
2023-04-16T09:43:56.755Z,21.77
2023-04-16T09:46:30.278Z,23.92
2023-04-16T09:48:57.678Z,24.42
2023-04-16T09:51:26.984Z,25.85
2023-04-16T09:53:54.919Z,24.13
2023-04-16T09:56:25.139Z,19.50
2023-04-16T09:58:57.551Z,22.88
2023-04-16T10:01:25.468Z,22.35
2023-04-16T10:03:55.282Z,23.65
2023-04-16T10:06:23.543Z,22.63
2023-04-16T10:08:51.438Z,22.10
2023-04-16T10:11:19.359Z,26.10
2023-04-16T10:13:46.636Z,22.58
2023-04-16T10:16:13.956Z,22.65
2023-04-16T10:18:42.190Z,18.60
2023-04-16T10:21:13.086Z,20.05
2023-04-16T10:23:41.055Z,21.08
2023-04-16T10:26:08.463Z,23.15
2023-04-16T10:28:36.313Z,22.27
2023-04-16T10:31:08.659Z,20.45
2023-04-16T10:33:37.172Z,23.95
2023-04-16T10:36:17.468Z,24.02
2023-04-16T10:38:48.704Z,25.58
2023-04-16T10:41:16.314Z,22.13
2023-04-16T10:43:47.350Z,32.22
2023-04-16T10:46:18.721Z,26.27
2023-04-16T10:48:50.161Z,27.70
2023-04-16T10:51:25.029Z,27.83
2023-04-16T10:53:52.418Z,26.33
2023-04-16T10:56:27.040Z,26.23
2023-04-16T10:58:56.226Z,23.40
2023-04-16T11:03:50.914Z,24.83
2023-04-16T11:06:24.587Z,24.13
2023-04-16T11:08:55.083Z,33.58
2023-04-16T11:11:23.276Z,20.13
2023-04-16T11:13:50.711Z,21.90
2023-04-16T11:16:18.228Z,22.88
2023-04-16T11:18:51.316Z,21.50
2023-04-16T11:21:19.291Z,27.05
2023-04-16T11:23:53.296Z,20.88
2023-04-16T11:26:21.629Z,19.73
2023-04-16T11:28:48.887Z,24.50
2023-04-16T11:31:16.245Z,21.88
2023-04-16T11:33:44.138Z,20.50
2023-04-16T11:36:11.423Z,27.33
2023-04-16T11:38:41.203Z,23.65
2023-04-16T11:41:08.445Z,26.27
2023-04-16T11:43:35.714Z,28.20
2023-04-16T11:46:20.091Z,27.20
2023-04-16T11:48:52.888Z,28.05
2023-04-16T11:51:21.782Z,22.20
2023-04-16T11:53:53.166Z,26.42
2023-04-16T11:56:28.489Z,24.90
2023-04-16T11:59:11.718Z,21.75
2023-04-16T12:01:40.563Z,27.73
2023-04-16T12:04:09.168Z,24.42
2023-04-16T12:06:36.774Z,19.38
2023-04-16T12:09:23.203Z,20.55
2023-04-16T12:11:50.391Z,24.23
2023-04-16T12:14:17.755Z,27.48
2023-04-16T12:16:45.035Z,26.38
2023-04-16T12:19:13.111Z,23.67
2023-04-16T12:21:44.317Z,26.88
2023-04-16T12:24:15.369Z,27.27
2023-04-16T12:26:42.923Z,27.30
2023-04-16T12:29:21.042Z,21.65
2023-04-16T12:31:49.499Z,24.67
2023-04-16T12:34:17.381Z,21.42
2023-04-16T12:36:45.910Z,24.75
2023-04-16T12:39:13.572Z,24.45
2023-04-16T12:41:42.090Z,23.13
2023-04-16T12:44:11.944Z,21.98
2023-04-16T12:46:39.936Z,25.40
2023-04-16T12:49:07.512Z,26.52
2023-04-16T12:51:35.372Z,24.17
2023-04-16T12:54:03.115Z,25.35
2023-04-16T12:56:31.130Z,27.30
2023-04-16T12:58:58.533Z,25.98
2023-04-16T13:01:25.775Z,22.48
2023-04-16T13:03:53.357Z,27.33
2023-04-16T13:06:21.079Z,28.67
2023-04-16T13:08:48.332Z,27.17
2023-04-16T13:11:15.692Z,28.60
2023-04-16T13:13:43.420Z,27.73
2023-04-16T13:16:11.307Z,26.95
2023-04-16T13:18:39.387Z,32.30
2023-04-16T13:21:06.903Z,25.45
2023-04-16T13:23:35.218Z,25.08
2023-04-16T13:26:03.409Z,26.53
2023-04-16T13:28:31.407Z,29.40
2023-04-16T13:30:59.443Z,27.02
2023-04-16T13:33:27.363Z,29.27
2023-04-16T13:35:54.683Z,27.42
2023-04-16T13:38:21.983Z,30.98
2023-04-16T13:40:49.265Z,25.75
2023-04-16T13:43:17.480Z,23.35
2023-04-16T13:45:44.805Z,22.55
2023-04-16T13:48:12.097Z,21.15
2023-04-16T13:50:39.422Z,24.95
2023-04-16T13:53:06.942Z,22.30
2023-04-16T13:55:34.220Z,26.75
2023-04-16T13:58:01.570Z,26.35
2023-04-16T14:00:28.859Z,26.13
2023-04-16T14:02:56.346Z,24.05
2023-04-16T14:05:25.790Z,22.67
2023-04-16T14:07:54.385Z,28.90
2023-04-16T14:10:21.748Z,26.60
2023-04-16T14:12:49.094Z,24.75
2023-04-16T14:15:16.582Z,27.85
2023-04-16T14:17:44.208Z,19.10
2023-04-16T14:20:15.674Z,23.35
2023-04-16T14:22:44.391Z,21.45
2023-04-16T14:25:11.734Z,22.40
2023-04-16T14:27:39.132Z,25.95
2023-04-16T14:30:07.023Z,24.90
2023-04-16T14:32:34.342Z,26.65
2023-04-16T14:35:01.603Z,23.95
2023-04-16T14:37:28.850Z,23.77
2023-04-16T14:39:56.456Z,28.63
2023-04-16T14:42:23.698Z,28.00
2023-04-16T14:44:52.048Z,25.92
2023-04-16T14:47:19.323Z,25.10
2023-04-16T14:49:46.801Z,27.70
2023-04-16T14:52:14.010Z,25.58
2023-04-16T14:54:41.221Z,27.13
2023-04-16T14:57:08.522Z,23.85
2023-04-16T14:59:36.924Z,29.73
2023-04-16T15:02:04.308Z,27.87
2023-04-16T15:04:31.833Z,32.20
2023-04-16T15:06:59.360Z,36.25
2023-04-16T15:09:29.952Z,33.58
2023-04-16T15:11:58.094Z,31.45
2023-04-16T15:14:25.522Z,29.88
2023-04-16T15:16:52.817Z,29.52
2023-04-16T15:19:20.199Z,35.33
2023-04-16T15:21:48.829Z,30.48
2023-04-16T15:24:16.167Z,26.50
2023-04-16T15:26:43.486Z,32.72
2023-04-16T15:29:10.807Z,30.52
2023-04-16T15:31:38.100Z,32.55
2023-04-16T15:34:05.495Z,38.70
2023-04-16T15:36:33.222Z,34.33
2023-04-16T15:39:00.440Z,29.17
2023-04-16T15:41:30.691Z,32.50
2023-04-16T15:43:58.117Z,29.23
2023-04-16T15:46:25.671Z,34.20
2023-04-16T15:48:52.905Z,26.85
2023-04-16T15:51:20.258Z,26.52
2023-04-16T15:53:49.431Z,28.98
2023-04-16T15:56:17.064Z,35.63
2023-04-16T15:58:44.416Z,32.63
2023-04-16T16:01:11.887Z,30.17
2023-04-16T16:03:39.307Z,50.10
2023-04-16T16:06:08.501Z,42.28
2023-04-16T16:08:37.793Z,27.90
2023-04-16T16:11:05.234Z,37.88
2023-04-16T16:13:32.505Z,27.35
2023-04-16T16:15:59.914Z,20.73
2023-04-16T16:18:27.195Z,25.73
2023-04-16T16:20:56.965Z,23.75
2023-04-16T16:23:24.259Z,28.10
2023-04-16T16:25:52.033Z,35.25
2023-04-16T16:28:20.501Z,25.77
2023-04-16T16:30:48.016Z,35.17
2023-04-16T16:33:15.433Z,27.25
2023-04-16T16:35:42.659Z,25.98
2023-04-16T16:38:09.914Z,25.63
2023-04-16T16:40:37.639Z,27.98
2023-04-16T16:43:04.945Z,31.23
2023-04-16T16:45:32.382Z,28.08
2023-04-16T16:47:59.725Z,28.10
2023-04-16T16:50:27.072Z,36.78
2023-04-16T16:52:54.377Z,30.65
2023-04-16T16:55:21.740Z,26.77
2023-04-16T16:57:49.401Z,30.20
2023-04-16T17:00:19.861Z,27.48
2023-04-16T17:02:47.510Z,27.42
2023-04-16T17:05:15.041Z,27.13
2023-04-16T17:07:42.356Z,28.30
2023-04-16T17:10:15.882Z,29.85
2023-04-16T17:12:43.144Z,26.55
2023-04-16T17:15:10.826Z,34.70
2023-04-16T17:17:38.140Z,33.65
2023-04-16T17:20:09.298Z,28.55
2023-04-16T17:22:36.840Z,29.83
2023-04-16T17:25:04.308Z,33.28
2023-04-16T17:27:34.734Z,34.72
2023-04-16T17:30:02.362Z,35.30
2023-04-16T17:32:31.768Z,35.20
2023-04-16T17:35:01.767Z,37.42
2023-04-16T17:37:29.419Z,36.92
2023-04-16T17:39:57.178Z,44.42
2023-04-16T17:42:24.727Z,34.38
2023-04-16T17:44:52.382Z,37.35
2023-04-16T17:47:19.792Z,37.30
2023-04-16T17:49:47.197Z,34.75
2023-04-16T17:52:14.429Z,39.00
2023-04-16T17:54:42.575Z,35.25
2023-04-16T17:57:09.850Z,32.80
2023-04-16T17:59:37.201Z,33.88
2023-04-16T18:02:04.519Z,35.13
2023-04-16T18:04:31.988Z,31.67
2023-04-16T18:06:59.391Z,36.22
2023-04-16T18:09:27.346Z,37.30
2023-04-16T18:11:54.608Z,37.10
2023-04-16T18:14:22.000Z,37.75
2023-04-16T18:16:49.770Z,31.80
2023-04-16T18:19:17.133Z,35.15
2023-04-16T18:21:45.085Z,36.38
2023-04-16T18:24:12.564Z,34.42
2023-04-16T18:26:40.948Z,37.47
2023-04-16T18:29:09.202Z,38.42
2023-04-16T18:31:36.878Z,32.55
2023-04-16T18:34:04.226Z,36.65
2023-04-16T18:36:31.546Z,34.30
2023-04-16T18:39:01.794Z,37.88
2023-04-16T18:41:30.877Z,32.15
2023-04-16T18:43:58.635Z,35.50
2023-04-16T18:46:26.745Z,38.90
2023-04-16T18:48:54.162Z,37.63
2023-04-16T18:51:21.423Z,36.88
2023-04-16T18:53:48.656Z,37.53
2023-04-16T18:56:15.948Z,35.53
2023-04-16T18:58:43.305Z,36.15
2023-04-16T19:01:13.996Z,36.88
2023-04-16T19:03:41.337Z,39.97
2023-04-16T19:06:08.660Z,33.63
2023-04-16T19:08:35.995Z,39.40
2023-04-16T19:11:03.305Z,36.88
2023-04-16T19:13:30.874Z,38.08
2023-04-16T19:15:59.605Z,33.17
2023-04-16T19:18:27.035Z,42.10
2023-04-16T19:21:00.786Z,34.83
2023-04-16T19:23:28.491Z,41.30
2023-04-16T19:25:59.179Z,40.53
2023-04-16T19:28:26.582Z,39.97
2023-04-16T19:30:54.802Z,37.35
2023-04-16T19:33:22.032Z,44.58
2023-04-16T19:35:49.366Z,40.30
2023-04-16T19:38:16.597Z,44.55
2023-04-16T19:40:47.368Z,36.17
2023-04-16T19:43:14.786Z,43.67
2023-04-16T19:45:45.522Z,45.05
2023-04-16T19:48:13.089Z,45.15
2023-04-16T19:50:41.291Z,40.67
2023-04-16T19:53:09.149Z,43.10
2023-04-16T19:55:36.582Z,41.85
2023-04-16T19:58:07.036Z,43.30
2023-04-16T20:00:35.103Z,45.83
2023-04-16T20:03:02.689Z,41.70
2023-04-16T20:05:30.157Z,46.45
2023-04-16T20:07:57.595Z,38.55
2023-04-16T20:10:25.375Z,38.90
2023-04-16T20:12:52.851Z,40.45
2023-04-16T20:15:20.484Z,38.63
2023-04-16T20:17:47.923Z,40.33
2023-04-16T20:20:16.335Z,41.25
2023-04-16T20:22:43.825Z,49.03
2023-04-16T20:25:11.466Z,38.42
2023-04-16T20:27:38.759Z,42.22
2023-04-16T20:30:06.480Z,43.35
2023-04-16T20:32:33.818Z,38.92
2023-04-16T20:35:01.973Z,44.92
2023-04-16T20:37:29.320Z,48.95
2023-04-16T20:39:56.600Z,40.42
2023-04-16T20:42:26.389Z,41.15
2023-04-16T20:44:56.492Z,44.28
2023-04-16T20:47:24.447Z,46.22
2023-04-16T20:49:52.782Z,39.80
2023-04-16T20:52:20.481Z,40.80
2023-04-16T20:54:48.004Z,45.30
2023-04-16T20:57:15.387Z,39.60
2023-04-16T20:59:42.768Z,39.97
2023-04-16T21:02:10.138Z,44.42
2023-04-16T21:04:37.628Z,44.85
2023-04-16T21:07:05.304Z,43.63
2023-04-16T21:09:32.627Z,41.67
2023-04-16T21:11:59.905Z,41.25
2023-04-16T21:14:27.142Z,42.92
2023-04-16T21:16:54.846Z,37.22
2023-04-16T21:19:22.545Z,39.85
2023-04-16T21:21:49.945Z,39.42
2023-04-16T21:24:17.298Z,38.08
2023-04-16T21:26:44.596Z,34.88
2023-04-16T21:29:12.023Z,33.47
2023-04-16T21:31:39.582Z,32.85
2023-04-16T21:34:07.040Z,34.33
2023-04-16T21:36:35.040Z,34.95
2023-04-16T21:39:02.461Z,37.35
2023-04-16T21:41:29.756Z,37.58
2023-04-16T21:43:56.986Z,37.13
2023-04-16T21:46:25.436Z,34.50
2023-04-16T21:48:53.680Z,38.25
2023-04-16T21:51:28.788Z,39.33
2023-04-16T21:53:56.934Z,41.85
2023-04-16T21:56:25.114Z,39.85
2023-04-16T21:58:52.390Z,35.30
2023-04-16T22:01:19.624Z,40.08
2023-04-16T22:03:50.553Z,41.90
2023-04-16T22:06:18.376Z,36.67
2023-04-16T22:08:45.636Z,42.22
2023-04-16T22:11:12.911Z,37.67
2023-04-16T22:13:42.338Z,47.28
2023-04-16T22:16:11.591Z,44.42
2023-04-16T22:18:41.156Z,40.30
2023-04-16T22:23:35.942Z,36.45
2023-04-16T22:26:04.098Z,36.67
2023-04-16T22:28:31.545Z,40.75
2023-04-16T22:30:58.798Z,41.97
2023-04-16T22:33:26.140Z,40.85
2023-04-16T22:35:53.541Z,39.80
2023-04-16T22:38:21.360Z,39.25
2023-04-16T22:40:49.014Z,48.50
2023-04-16T22:43:17.663Z,39.45
2023-04-16T22:45:46.326Z,36.70
2023-04-16T22:48:13.736Z,35.97
2023-04-16T22:50:41.404Z,32.72
2023-04-16T22:53:08.809Z,34.45
2023-04-16T22:55:36.689Z,36.85
2023-04-16T22:58:03.881Z,36.92
2023-04-16T23:00:31.225Z,38.08
2023-04-16T23:02:58.538Z,40.85
2023-04-16T23:05:25.981Z,42.42
2023-04-16T23:07:53.236Z,39.75
2023-04-16T23:10:20.616Z,40.85
2023-04-16T23:12:47.960Z,36.78
2023-04-16T23:15:16.296Z,36.43
2023-04-16T23:17:43.634Z,39.60
2023-04-16T23:20:12.178Z,47.22
2023-04-16T23:22:39.845Z,37.33
2023-04-16T23:25:10.910Z,44.20
2023-04-16T23:27:38.302Z,41.40
2023-04-16T23:30:05.871Z,39.35
2023-04-16T23:32:34.238Z,41.67
2023-04-16T23:35:01.580Z,48.17
2023-04-16T23:37:28.851Z,45.53
2023-04-16T23:39:56.160Z,45.40
2023-04-16T23:42:23.377Z,43.08
2023-04-16T23:44:50.752Z,43.88
2023-04-16T23:47:18.064Z,48.65
2023-04-16T23:49:45.548Z,37.65
2023-04-16T23:52:12.860Z,43.20
2023-04-16T23:54:40.145Z,44.75
2023-04-16T23:57:07.401Z,47.80
2023-04-16T23:59:34.780Z,51.13
